Observations for INVERNESS DALCROSS, United Kingdom (EGPE)

EGPE 180250Z AUTO 23006KT 9999 FEW046/// M00/M00 Q1017  
EGPE 180220Z AUTO 23004KT 9999 NCD M01/M01 Q1017
EGPE 180150Z AUTO 21002KT 9999 NCD M01/M01 Q1017
EGPE 180120Z AUTO 22006KT 9999 NCD 00/00 Q1017  
EGPE 180050Z AUTO 24006KT 9999 NCD 00/M00 Q1017 
EGPE 180020Z AUTO 23007KT 9999 FEW038/// 03/02 Q1017
EGPE 172350Z AUTO 23004KT 9999 NCD 02/01 Q1017  
EGPE 172320Z AUTO 23007KT 9999 BKN043/// 03/02 Q1017
EGPE 172250Z AUTO 22008KT 9999 BKN043/// 03/02 Q1017
EGPE 172220Z AUTO 24006KT 9999 SCT041/// BKN048/// 03/02 Q1017  
EGPE 172150Z AUTO 24006KT 9999 BKN049/// 03/02 Q1017
EGPE 172120Z AUTO 23010KT 9999 NCD 03/02 Q1016  
EGPE 172050Z AUTO 23006KT 9999 NCD 03/02 Q1016  
EGPE 172020Z 23006KT CAVOK 02/01 Q1016  
EGPE 171950Z 23008KT 9999 FEW031 03/02 Q1016
EGPE 171920Z 24007KT 9999 FEW031 03/02 Q1016
EGPE 171850Z 22005KT 9999 FEW022 SCT042 02/01 Q1016 
EGPE 171820Z 24006KT 9999 FEW028 SCT042 04/02 Q1016 
EGPE 171750Z 24007KT 9999 FEW022 SCT038 04/02 Q1015 
EGPE 171720Z 23007KT 9999 SCT028 04/02 Q1015
EGPE 171650Z 23011KT 9999 FEW018 SCT032 05/01 Q1014 
EGPE 171620Z 24013KT 9999 VCSH FEW016 SCT032 06/02 Q1014
EGPE 171550Z 24011KT 9999 VCSH FEW016 SCT032 05/02 Q1014
EGPE 171520Z 24012KT 9999 FEW032 07/02 Q1013
EGPE 171450Z 24014KT 9999 FEW032 07/01 Q1013
EGPE 171420Z 24012KT 9999 FEW032 07/02 Q1013
EGPE 171350Z 24014KT 9999 SCT032 07/02 Q1013
EGPE 171320Z 24014KT 9999 FEW016 SCT032 07/02 Q1013 
EGPE 171250Z 23014KT 9999 FEW008 SCT030 07/03 Q1013 
EGPE 171220Z 24014KT 9999 FEW010 SCT022 07/02 Q1013 
EGPE 171150Z 24018KT 9999 FEW010 SCT022 06/02 Q1013 
EGPE 171120Z 25017KT 9999 FEW010 SCT018CB 06/03 Q1013   
EGPE 171050Z 25014KT 9999 FEW010 SCT015CB 06/03 Q1012   
EGPE 171020Z 27008KT 9999 FEW012 SCT020CB 06/03 Q1012   
EGPE 170950Z 26008KT 9999 FEW012 SCT026CB 04/03 Q1012   
EGPE 170920Z 24011KT 9999 FEW012 SCT026CB 04/02 Q1012   
EGPE 170850Z 22008KT 9999 FEW026 04/02 Q1012
EGPE 170820Z VRB01KT 9999 FEW026 02/01 Q1011
EGPE 170750Z 19005KT 9999 FEW026 02/01 Q1011
EGPE 170720Z VRB02KT 9999 FEW032 02/01 Q1011
EGPE 170650Z 21008KT 9999 FEW030 02/02 Q1011
EGPE 170620Z 23008KT 9999 FEW038 02/02 Q1011
EGPE 170550Z VRB02KT 9999 FEW030 00/00 Q1011
EGPE 170520Z VRB02KT 9999 FEW030 01/00 Q1011
EGPE 170450Z VRB02KT 9999 FEW030 01/M00 Q1011   
EGPE 170420Z 23008KT 9999 FEW030 SCT048 03/02 Q1011 
EGPE 170350Z 23008KT 9999 FEW030 03/02 Q1011
EGPE 170320Z 23010KT 9999 FEW030 03/02 Q1011
EGPE 170250Z 26009KT 9999 FEW030 04/02 Q1011
EGPE 170220Z AUTO 23012KT 9999 NCD 05/02 Q1010